createdAt,value
2022-09-13T07:16:13.385Z,95109.75
2022-09-13T07:18:11.702Z,95105.50
2022-09-13T07:20:10.357Z,95101.13
2022-09-13T07:22:08.660Z,95108.50
2022-09-13T07:24:07.398Z,95109.16
2022-09-13T07:26:07.387Z,95101.78
2022-09-13T07:28:05.695Z,95104.25
2022-09-13T07:30:04.063Z,95106.63
2022-09-13T07:32:03.972Z,95106.78
2022-09-13T07:34:03.791Z,95102.44
2022-09-13T07:36:06.354Z,95104.72
2022-09-13T07:38:04.636Z,95108.66
2022-09-13T07:40:03.409Z,95108.31
2022-09-13T07:42:01.555Z,95103.84
2022-09-13T07:44:01.006Z,95112.41
2022-09-13T07:46:00.863Z,95107.25
2022-09-13T07:48:00.507Z,95107.16
2022-09-13T07:49:58.707Z,95115.56
2022-09-13T07:51:57.008Z,95121.56
2022-09-13T07:53:57.917Z,95118.66
2022-09-13T07:56:01.015Z,95110.84
2022-09-13T07:57:59.693Z,95111.34
2022-09-13T07:59:57.751Z,95108.91
2022-09-13T08:01:55.984Z,95113.22
2022-09-13T08:03:57.316Z,95110.34
2022-09-13T08:05:55.621Z,95110.94
2022-09-13T08:07:53.777Z,95111.78
2022-09-13T08:09:52.698Z,95104.34
2022-09-13T08:11:53.338Z,95110.72
2022-09-13T08:13:52.813Z,95107.78
2022-09-13T08:15:51.306Z,95109.13
2022-09-13T08:17:49.994Z,95113.84
2022-09-13T08:19:49.622Z,95113.97
2022-09-13T08:21:48.574Z,95111.50
2022-09-13T08:23:47.181Z,95105.66
2022-09-13T08:25:45.534Z,95107.59
2022-09-13T08:27:43.840Z,95110.66
2022-09-13T08:29:41.985Z,95103.28
2022-09-13T08:31:40.344Z,95096.94
2022-09-13T08:33:41.048Z,95099.38
2022-09-13T08:35:52.350Z,95092.81
2022-09-13T08:37:50.648Z,95101.44
2022-09-13T08:39:48.889Z,95098.34
2022-09-13T08:42:22.924Z,95094.47
2022-09-13T08:44:29.835Z,95090.09
2022-09-13T08:46:32.013Z,95093.81
2022-09-13T08:48:35.093Z,95095.81
2022-09-13T08:50:36.286Z,95088.50
2022-09-13T08:52:45.455Z,95085.22
2022-09-13T08:54:44.133Z,95089.94
2022-09-13T08:56:46.558Z,95087.22
2022-09-13T08:59:09.420Z,95092.41
2022-09-13T09:01:10.308Z,95089.72
2022-09-13T09:03:22.545Z,95075.50
2022-09-13T09:05:22.825Z,95088.47
2022-09-13T09:07:24.909Z,95094.22
2022-09-13T09:09:26.484Z,95095.44
2022-09-13T09:11:38.304Z,95088.38
2022-09-13T09:13:42.858Z,95095.03
2022-09-13T09:15:45.445Z,95087.16
2022-09-13T09:17:51.543Z,95098.31
2022-09-13T09:19:54.075Z,95099.53
2022-09-13T09:21:53.047Z,95098.69
2022-09-13T09:23:53.407Z,95096.34
2022-09-13T09:26:15.853Z,95092.69
2022-09-13T09:28:16.733Z,95094.50
2022-09-13T09:30:15.775Z,95088.34
2022-09-13T09:32:32.826Z,95081.78
2022-09-13T09:34:43.841Z,95067.22
2022-09-13T09:36:46.368Z,95071.13
2022-09-13T09:38:45.032Z,95057.03
2022-09-13T09:40:43.349Z,95056.91
2022-09-13T09:42:45.160Z,95060.88
2022-09-13T09:44:46.342Z,95051.50
2022-09-13T09:46:48.500Z,95057.09
2022-09-13T09:48:53.034Z,95057.03
2022-09-13T09:50:53.542Z,95055.38
2022-09-13T09:52:58.870Z,95050.88
2022-09-13T09:55:04.031Z,95045.56
2022-09-13T09:57:02.619Z,95052.28
2022-09-13T09:59:03.485Z,95040.22
2022-09-13T10:01:02.294Z,95029.41
2022-09-13T10:03:03.819Z,95033.88
2022-09-13T10:05:04.121Z,95042.91
2022-09-13T10:07:22.875Z,95030.13
2022-09-13T10:09:22.998Z,95018.50
2022-09-13T10:11:22.376Z,95025.75
2022-09-13T10:13:23.070Z,95022.44
2022-09-13T10:15:26.091Z,95023.84
2022-09-13T10:17:26.850Z,95022.19
2022-09-13T10:19:26.906Z,95018.88
2022-09-13T10:21:28.412Z,95014.56
2022-09-13T10:23:27.469Z,95015.97
2022-09-13T10:25:27.235Z,95018.84
2022-09-13T10:27:37.682Z,95013.34
2022-09-13T10:29:37.244Z,95019.56
2022-09-13T10:31:40.427Z,95017.56
2022-09-13T10:33:43.600Z,95008.66
2022-09-13T10:35:41.979Z,95013.91
2022-09-13T10:37:45.874Z,95014.53
2022-09-13T10:39:57.491Z,95012.75
2022-09-13T10:41:59.727Z,95013.03
2022-09-13T10:43:59.687Z,95008.44
2022-09-13T10:45:58.848Z,95019.56
2022-09-13T10:48:26.930Z,95007.25
2022-09-13T10:50:36.069Z,94999.88
2022-09-13T10:52:36.426Z,95004.34
2022-09-13T10:54:34.584Z,95006.44
2022-09-13T10:56:32.757Z,94995.84
2022-09-13T10:58:31.021Z,94986.47
2022-09-13T11:00:36.699Z,94990.22
2022-09-13T11:02:57.699Z,94996.69
2022-09-13T11:05:20.249Z,94989.31
2022-09-13T11:07:51.824Z,95001.19
2022-09-13T11:09:58.467Z,94984.22
2022-09-13T11:12:06.667Z,94989.03
2022-09-13T11:14:33.625Z,95005.09
2022-09-13T11:16:51.058Z,95002.41
2022-09-13T11:19:08.611Z,94982.03
2022-09-13T11:21:19.877Z,94998.25
2022-09-13T11:23:49.551Z,94979.47
2022-09-13T11:26:07.952Z,94981.75
2022-09-13T11:28:14.053Z,94980.22
2022-09-13T11:30:17.161Z,94971.94
2022-09-13T11:32:54.060Z,94973.19
2022-09-13T11:34:58.097Z,94982.16
2022-09-13T11:37:16.473Z,94976.13
2022-09-13T11:39:26.415Z,94972.38
2022-09-13T11:41:33.851Z,94970.56
2022-09-13T11:44:11.109Z,94969.00
2022-09-13T11:46:31.547Z,94968.94
2022-09-13T11:48:47.760Z,94965.00
2022-09-13T11:50:55.653Z,94969.06
2022-09-13T11:53:04.367Z,94974.25
2022-09-13T11:55:16.580Z,94965.66
2022-09-13T11:57:25.208Z,94972.25
2022-09-13T11:59:36.478Z,94959.63
2022-09-13T12:01:41.859Z,94972.88
2022-09-13T12:03:54.874Z,94963.91
2022-09-13T12:05:58.863Z,94965.75
2022-09-13T12:08:03.124Z,94969.50
2022-09-13T12:10:07.727Z,94960.53
2022-09-13T12:12:08.381Z,94974.56
2022-09-13T12:14:17.647Z,94975.53
2022-09-13T12:16:25.222Z,94982.44
2022-09-13T12:18:27.776Z,94958.22
2022-09-13T12:20:34.495Z,94965.81
2022-09-13T12:22:36.128Z,94963.97
2022-09-13T12:24:39.459Z,94966.22
2022-09-13T12:26:45.054Z,94963.75
2022-09-13T12:28:47.615Z,94962.34
2022-09-13T12:30:53.244Z,94966.19
2022-09-13T12:32:58.049Z,94961.94
2022-09-13T12:35:02.892Z,94960.66
2022-09-13T12:37:26.833Z,94959.94
2022-09-13T12:40:10.542Z,94965.81
2022-09-13T12:42:49.115Z,94959.47
2022-09-13T12:45:01.310Z,94955.75
2022-09-13T12:47:14.477Z,94966.22
2022-09-13T12:49:44.141Z,94958.91
2022-09-13T12:52:09.819Z,94954.53
2022-09-13T12:54:31.670Z,94959.72
2022-09-13T12:56:45.809Z,94956.88
2022-09-13T12:59:03.843Z,94954.19
2022-09-13T13:01:15.999Z,94952.88
2022-09-13T13:03:17.927Z,94974.13
2022-09-13T13:05:25.283Z,94973.13
2022-09-13T13:07:24.560Z,94974.88
2022-09-13T13:09:29.639Z,94972.78
2022-09-13T13:11:31.587Z,94963.69
2022-09-13T13:13:36.048Z,94971.09
2022-09-13T13:16:21.937Z,94964.88
2022-09-13T13:18:25.999Z,94966.91
2022-09-13T13:21:22.786Z,94958.81
2022-09-13T13:23:24.783Z,94955.66
2022-09-13T13:25:34.540Z,94970.97
2022-09-13T13:27:48.030Z,94973.13
2022-09-13T13:30:09.485Z,94980.63
2022-09-13T13:32:13.697Z,94971.66
2022-09-13T13:34:31.405Z,94978.72
2022-09-13T13:36:33.985Z,94976.44
2022-09-13T13:38:44.604Z,94970.03
2022-09-13T13:40:42.730Z,94973.75
2022-09-13T13:42:45.190Z,94972.72
2022-09-13T13:45:08.867Z,94970.03
2022-09-13T13:47:37.087Z,94974.75
2022-09-13T13:49:51.208Z,94974.34
2022-09-13T13:52:26.907Z,94978.25
2022-09-13T13:54:34.230Z,94979.31
2022-09-13T13:56:49.802Z,94990.84
2022-09-13T13:58:51.951Z,94975.22
2022-09-13T14:00:52.582Z,94977.25
2022-09-13T14:03:04.513Z,94977.84
2022-09-13T14:05:19.280Z,94985.94
2022-09-13T14:07:54.410Z,94984.03
2022-09-13T14:09:55.589Z,94969.63
2022-09-13T14:12:05.292Z,94984.25
2022-09-13T14:14:20.341Z,94974.53
2022-09-13T14:16:36.984Z,94988.97
2022-09-13T14:19:00.016Z,94978.03
2022-09-13T14:21:03.966Z,94988.72
2022-09-13T14:23:18.438Z,94984.22
2022-09-13T14:25:25.449Z,94989.78
2022-09-13T14:27:25.481Z,94984.25
2022-09-13T14:29:25.904Z,94999.50
2022-09-13T14:31:24.525Z,94999.88
2022-09-13T14:33:31.068Z,94991.25
2022-09-13T14:35:36.901Z,94994.34
2022-09-13T14:37:39.860Z,94987.97
2022-09-13T14:39:39.822Z,94989.81
2022-09-13T14:41:41.023Z,94984.66
2022-09-13T14:43:39.446Z,94979.72
2022-09-13T14:45:38.989Z,94979.09
2022-09-13T14:47:43.070Z,94991.44
2022-09-13T14:49:49.311Z,94994.53
2022-09-13T14:51:49.784Z,94987.13
2022-09-13T14:53:52.817Z,94987.53
2022-09-13T14:55:53.824Z,94987.34
2022-09-13T14:57:58.409Z,94992.28
2022-09-13T15:00:00.308Z,94993.50
2022-09-13T15:02:02.801Z,94988.56
2022-09-13T15:04:05.820Z,94996.19
2022-09-13T15:06:07.562Z,94992.44
2022-09-13T15:08:26.978Z,95000.47
2022-09-13T15:10:30.085Z,95002.91
2022-09-13T15:12:30.042Z,95000.81
2022-09-13T15:14:31.303Z,95005.72
2022-09-13T15:16:32.820Z,95001.59
2022-09-13T15:18:47.363Z,94994.97
2022-09-13T15:21:09.479Z,94994.13
2022-09-13T15:23:15.293Z,94992.31
2022-09-13T15:25:28.766Z,94998.44
2022-09-13T15:27:29.635Z,94994.09
2022-09-13T15:29:28.117Z,94988.47
2022-09-13T15:31:28.621Z,94990.16
2022-09-13T15:33:32.497Z,94985.81
2022-09-13T15:35:36.745Z,94995.66
2022-09-13T15:37:37.994Z,94996.63
2022-09-13T15:39:44.916Z,94994.00
2022-09-13T15:41:54.491Z,95001.84
2022-09-13T15:43:55.723Z,95000.59
2022-09-13T15:45:54.135Z,94998.34
2022-09-13T15:47:53.779Z,95003.88
2022-09-13T15:49:53.384Z,95008.34
2022-09-13T15:51:57.124Z,95009.34
2022-09-13T15:53:55.805Z,95013.44
2022-09-13T15:55:54.273Z,95009.88
2022-09-13T15:57:54.452Z,95020.94
2022-09-13T15:59:54.225Z,95022.00
2022-09-13T16:01:53.741Z,95025.84
2022-09-13T16:03:53.279Z,95026.19
2022-09-13T16:05:51.564Z,95019.97
2022-09-13T16:07:49.775Z,95028.78
2022-09-13T16:09:49.820Z,95026.72
2022-09-13T16:11:48.931Z,95024.81
2022-09-13T16:13:48.674Z,95034.06
2022-09-13T16:15:46.938Z,95030.88
2022-09-13T16:17:45.114Z,95027.72
2022-09-13T16:19:43.565Z,95032.00
2022-09-13T16:21:41.660Z,95032.63
2022-09-13T16:23:44.355Z,95021.31
2022-09-13T16:25:43.124Z,95021.50
2022-09-13T16:27:42.025Z,95024.88
2022-09-13T16:29:41.678Z,95031.81
2022-09-13T16:31:40.050Z,95031.91
2022-09-13T16:33:38.365Z,95030.72
2022-09-13T16:35:36.690Z,95038.41
2022-09-13T16:37:35.653Z,95042.09
2022-09-13T16:39:33.996Z,95039.16
2022-09-13T16:41:32.198Z,95038.09
2022-09-13T16:43:30.903Z,95041.69
2022-09-13T16:45:30.689Z,95037.56
2022-09-13T16:47:28.976Z,95049.03
2022-09-13T16:49:27.396Z,95045.63
2022-09-13T16:51:26.488Z,95050.69
2022-09-13T16:53:24.600Z,95054.09
2022-09-13T16:55:24.221Z,95049.50
2022-09-13T16:57:22.533Z,95056.97
2022-09-13T16:59:23.271Z,95061.66
2022-09-13T17:01:26.015Z,95065.50
2022-09-13T17:03:32.764Z,95067.00
2022-09-13T17:05:31.045Z,95067.16
2022-09-13T17:07:29.183Z,95071.88
2022-09-13T17:09:27.783Z,95072.59
2022-09-13T17:11:27.957Z,95080.38
2022-09-13T17:13:26.221Z,95073.78
2022-09-13T17:15:24.586Z,95079.84
2022-09-13T17:17:24.686Z,95091.22
2022-09-13T17:19:24.908Z,95096.44
2022-09-13T17:21:23.477Z,95092.63
2022-09-13T17:23:21.865Z,95091.56
2022-09-13T17:25:20.991Z,95087.50
2022-09-13T17:27:19.310Z,95089.41
2022-09-13T17:29:17.769Z,95089.94
2022-09-13T17:31:16.378Z,95089.94
2022-09-13T17:33:16.640Z,95094.16
2022-09-13T17:35:14.710Z,95095.06
2022-09-13T17:37:12.873Z,95103.75
2022-09-13T17:39:11.453Z,95103.09
2022-09-13T17:41:11.912Z,95103.44
2022-09-13T17:43:10.148Z,95104.66
2022-09-13T17:45:09.430Z,95103.09
2022-09-13T17:47:07.927Z,95111.41
2022-09-13T17:49:07.529Z,95108.72
2022-09-13T17:51:07.959Z,95109.06
2022-09-13T17:53:06.635Z,95114.38
2022-09-13T17:55:05.230Z,95108.88
2022-09-13T17:57:03.716Z,95111.06
2022-09-13T17:59:09.838Z,95106.00
2022-09-13T18:01:10.018Z,95105.69
2022-09-13T18:03:08.183Z,95125.34
2022-09-13T18:05:13.391Z,95126.34
2022-09-13T18:07:12.752Z,95122.53
2022-09-13T18:09:12.105Z,95118.59
2022-09-13T18:11:14.057Z,95127.19
2022-09-13T18:13:12.589Z,95119.22
2022-09-13T18:15:11.907Z,95123.72
2022-09-13T18:17:13.291Z,95124.53
2022-09-13T18:19:12.277Z,95125.28
2022-09-13T18:21:11.947Z,95121.25
2022-09-13T18:23:10.051Z,95120.78
2022-09-13T18:25:09.379Z,95124.31
2022-09-13T18:27:07.635Z,95126.63
2022-09-13T18:29:08.322Z,95121.84
2022-09-13T18:31:09.341Z,95122.72
2022-09-13T18:33:11.306Z,95128.38
2022-09-13T18:35:12.999Z,95125.44
2022-09-13T18:37:12.590Z,95130.41
2022-09-13T18:39:23.909Z,95131.13
2022-09-13T18:41:23.702Z,95137.47
2022-09-13T18:43:21.887Z,95139.00
2022-09-13T18:45:20.163Z,95136.03
2022-09-13T18:47:18.879Z,95136.19
2022-09-13T18:49:18.517Z,95136.06
2022-09-13T18:51:21.970Z,95148.03
2022-09-13T18:53:31.830Z,95148.19
2022-09-13T18:55:32.561Z,95154.69
2022-09-13T18:57:30.690Z,95158.50
2022-09-13T18:59:30.441Z,95154.69
2022-09-13T19:01:30.551Z,95158.53
2022-09-13T19:03:28.926Z,95156.03
2022-09-13T19:05:27.993Z,95153.22
2022-09-13T19:07:26.273Z,95159.53
2022-09-13T19:09:26.142Z,95155.88
2022-09-13T19:11:49.461Z,95158.84
2022-09-13T19:13:44.022Z,95149.56
2022-09-13T19:15:42.302Z,95146.28
2022-09-13T19:17:40.565Z,95149.91
2022-09-13T19:19:38.903Z,95150.75
2022-09-13T19:21:37.374Z,95145.59
2022-09-13T19:23:57.908Z,95151.59
2022-09-13T19:25:56.169Z,95141.09
2022-09-13T19:27:54.454Z,95147.25
2022-09-13T19:29:52.769Z,95148.44
2022-09-13T19:31:52.870Z,95148.44
2022-09-13T19:33:51.734Z,95154.91
2022-09-13T19:35:58.438Z,95154.41
2022-09-13T19:37:56.696Z,95153.56
2022-09-13T19:39:55.258Z,95151.91
2022-09-13T19:41:54.902Z,95153.41
2022-09-13T19:43:56.664Z,95156.56
2022-09-13T19:45:59.223Z,95150.78
2022-09-13T19:48:37.559Z,95153.75
2022-09-13T19:50:16.469Z,95151.56
2022-09-13T19:52:14.624Z,95169.50
2022-09-13T19:54:13.919Z,95163.84
2022-09-13T19:56:14.302Z,95163.69
2022-09-13T19:58:13.996Z,95166.69
2022-09-13T20:00:13.632Z,95164.84
2022-09-13T20:02:12.197Z,95168.84
2022-09-13T20:04:13.023Z,95160.19
2022-09-13T20:06:12.797Z,95154.25
2022-09-13T20:08:11.437Z,95157.72
2022-09-13T20:10:10.343Z,95143.59
2022-09-13T20:12:10.182Z,95156.72
2022-09-13T20:14:09.834Z,95163.16
2022-09-13T20:16:11.205Z,95164.19
2022-09-13T20:18:13.382Z,95159.69
2022-09-13T20:20:11.830Z,95156.88
2022-09-13T20:22:10.547Z,95155.38
2022-09-13T20:24:09.174Z,95159.84
2022-09-13T20:26:15.969Z,95163.47
2022-09-13T20:28:14.321Z,95159.50
2022-09-13T20:30:16.176Z,95169.59
2022-09-13T20:32:14.646Z,95161.16
2022-09-13T20:34:15.035Z,95169.72
2022-09-13T20:36:15.521Z,95165.56
2022-09-13T20:38:13.617Z,95165.25
2022-09-13T20:40:12.283Z,95164.94
2022-09-13T20:42:11.205Z,95166.91
2022-09-13T20:44:09.396Z,95172.38
2022-09-13T20:46:11.393Z,95173.97
2022-09-13T20:48:09.750Z,95175.59
2022-09-13T20:50:08.795Z,95166.44
2022-09-13T20:52:07.082Z,95187.97
2022-09-13T20:54:06.205Z,95179.81
2022-09-13T20:56:05.184Z,95182.44
2022-09-13T20:58:03.408Z,95184.75
2022-09-13T21:00:02.208Z,95196.63
2022-09-13T21:02:01.759Z,95189.97
2022-09-13T21:04:00.714Z,95189.13
2022-09-13T21:06:01.598Z,95193.63
2022-09-13T21:08:17.412Z,95190.44
2022-09-13T21:10:15.742Z,95195.91
2022-09-13T21:12:15.875Z,95191.53
2022-09-13T21:14:14.143Z,95188.25
2022-09-13T21:16:14.191Z,95188.06
2022-09-13T21:18:15.090Z,95195.00
2022-09-13T21:20:13.326Z,95195.16
2022-09-13T21:22:11.432Z,95201.56
2022-09-13T21:24:12.704Z,95194.63
2022-09-13T21:26:13.384Z,95187.97
2022-09-13T21:28:11.855Z,95187.28
2022-09-13T21:30:10.310Z,95190.94
2022-09-13T21:32:08.836Z,95195.84
2022-09-13T21:34:14.630Z,95194.50
2022-09-13T21:36:14.294Z,95196.31
2022-09-13T21:38:12.346Z,95192.84
2022-09-13T21:40:11.792Z,95197.91
2022-09-13T21:42:09.977Z,95183.69
2022-09-13T21:44:08.232Z,95194.56
2022-09-13T21:46:08.320Z,95188.63
2022-09-13T21:48:06.567Z,95183.16
2022-09-13T21:50:07.480Z,95192.56
2022-09-13T21:52:05.718Z,95182.13
2022-09-13T21:54:07.189Z,95182.97
2022-09-13T21:56:06.879Z,95182.13
2022-09-13T21:58:05.099Z,95180.47
2022-09-13T22:00:04.524Z,95179.78
2022-09-13T22:02:11.870Z,95181.31
2022-09-13T22:04:13.150Z,95177.59
2022-09-13T22:06:14.983Z,95177.09
2022-09-13T22:08:13.278Z,95176.84
2022-09-13T22:10:11.521Z,95178.53
2022-09-13T22:12:09.693Z,95179.47
2022-09-13T22:14:09.906Z,95180.25
2022-09-13T22:16:09.893Z,95180.00
2022-09-13T22:18:08.316Z,95182.66
2022-09-13T22:20:07.450Z,95180.63
2022-09-13T22:22:07.404Z,95182.53
2022-09-13T22:24:07.396Z,95177.25
2022-09-13T22:26:06.987Z,95175.25
2022-09-13T22:28:05.261Z,95176.94
2022-09-13T22:30:03.562Z,95179.28
2022-09-13T22:32:02.033Z,95176.31
2022-09-13T22:34:01.968Z,95180.63
2022-09-13T22:36:01.328Z,95178.94
2022-09-13T22:38:00.869Z,95182.34
2022-09-13T22:39:59.714Z,95178.13
2022-09-13T22:41:57.919Z,95180.09
2022-09-13T22:43:56.518Z,95191.56
2022-09-13T22:45:55.187Z,95180.84
2022-09-13T22:47:53.721Z,95190.44
2022-09-13T22:49:51.881Z,95190.19
2022-09-13T22:51:50.269Z,95189.91
2022-09-13T22:53:51.268Z,95191.19
2022-09-13T22:55:50.250Z,95190.78
2022-09-13T22:57:48.531Z,95186.13
2022-09-13T22:59:48.318Z,95178.19
2022-09-13T23:01:47.019Z,95183.91
2022-09-13T23:03:47.149Z,95179.59
2022-09-13T23:05:52.525Z,95183.22
2022-09-13T23:07:50.839Z,95180.59
2022-09-13T23:09:50.379Z,95184.34
2022-09-13T23:11:48.846Z,95182.63
2022-09-13T23:13:49.369Z,95183.28
2022-09-13T23:15:47.653Z,95179.28
2022-09-13T23:17:45.784Z,95177.00
2022-09-13T23:19:44.089Z,95180.94
2022-09-13T23:21:43.815Z,95181.03
2022-09-13T23:23:42.124Z,95175.22
2022-09-13T23:25:41.942Z,95183.97
2022-09-13T23:27:40.096Z,95183.16
2022-09-13T23:29:38.305Z,95183.53
2022-09-13T23:31:38.857Z,95182.28
2022-09-13T23:33:39.663Z,95179.06
2022-09-13T23:35:40.826Z,95190.91
2022-09-13T23:37:39.747Z,95192.66
2022-09-13T23:39:38.403Z,95185.41
2022-09-13T23:41:38.296Z,95191.56
2022-09-13T23:43:36.359Z,95196.44
2022-09-13T23:45:34.660Z,95185.03
2022-09-13T23:47:32.856Z,95188.50
2022-09-13T23:49:30.995Z,95197.94
2022-09-13T23:51:29.303Z,95191.56
2022-09-13T23:53:27.394Z,95185.13
2022-09-13T23:55:25.521Z,95186.03
2022-09-13T23:57:25.269Z,95199.56
2022-09-13T23:59:23.375Z,95194.72
